createdAt,value
2022-07-31T00:00:55.141Z,69.70
2022-07-31T00:03:23.590Z,69.77
2022-07-31T00:05:52.433Z,69.73
2022-07-31T00:08:24.151Z,69.70
2022-07-31T00:10:52.559Z,69.66
2022-07-31T00:13:57.767Z,69.68
2022-07-31T00:16:10.399Z,69.77
2022-07-31T00:18:38.795Z,69.83
2022-07-31T00:21:07.107Z,69.86
2022-07-31T00:23:35.550Z,69.91
2022-07-31T00:26:03.938Z,70.00
2022-07-31T00:28:32.746Z,69.96
2022-07-31T00:31:01.160Z,69.88
2022-07-31T00:33:29.880Z,69.95
2022-07-31T00:35:58.339Z,69.97
2022-07-31T00:38:27.585Z,70.07
2022-07-31T00:40:56.819Z,70.09
2022-07-31T00:43:27.411Z,70.09
2022-07-31T00:45:59.429Z,70.05
2022-07-31T00:48:28.199Z,70.19
2022-07-31T00:50:56.988Z,70.17
2022-07-31T00:53:25.638Z,70.21
2022-07-31T00:55:54.532Z,70.14
2022-07-31T00:58:24.906Z,70.13
2022-07-31T01:04:08.146Z,70.18
2022-07-31T01:06:44.736Z,70.24
2022-07-31T01:09:14.619Z,70.22
2022-07-31T01:11:50.656Z,70.17
2022-07-31T01:14:22.258Z,70.08
2022-07-31T01:16:53.677Z,70.14
2022-07-31T01:19:42.169Z,70.11
2022-07-31T01:23:03.570Z,70.08
2022-07-31T01:25:56.734Z,70.03
2022-07-31T01:28:53.194Z,70.14
2022-07-31T01:31:27.661Z,70.12
2022-07-31T01:34:05.924Z,70.14
2022-07-31T01:36:36.796Z,70.15
2022-07-31T01:39:06.284Z,70.20
2022-07-31T01:41:40.548Z,70.18
2022-07-31T01:44:13.822Z,70.19
2022-07-31T01:46:46.879Z,70.18
2022-07-31T01:49:20.817Z,70.19
2022-07-31T01:51:52.758Z,70.17
2022-07-31T01:54:26.260Z,70.21
2022-07-31T01:56:59.087Z,70.19
2022-07-31T01:59:29.353Z,70.25
2022-07-31T02:02:14.581Z,70.39
2022-07-31T02:04:50.477Z,70.32
2022-07-31T02:07:30.954Z,70.39
2022-07-31T02:10:02.585Z,70.31
2022-07-31T02:12:34.814Z,70.35
2022-07-31T02:15:06.895Z,70.34
2022-07-31T02:17:41.465Z,70.36
2022-07-31T02:20:38.500Z,70.47
2022-07-31T02:23:37.219Z,70.50
2022-07-31T02:26:08.077Z,70.57
2022-07-31T02:28:40.995Z,70.49
2022-07-31T02:31:12.909Z,70.54
2022-07-31T02:33:45.929Z,70.53
2022-07-31T02:36:17.287Z,70.63
2022-07-31T02:38:46.758Z,70.62
2022-07-31T02:41:17.202Z,70.57
2022-07-31T02:43:56.122Z,70.59
2022-07-31T02:46:27.958Z,70.62
2022-07-31T02:48:56.940Z,70.72
2022-07-31T02:51:26.172Z,70.69
2022-07-31T02:53:55.710Z,70.78
2022-07-31T02:56:35.047Z,70.81
2022-07-31T02:59:04.802Z,70.80
2022-07-31T03:01:43.950Z,70.85
2022-07-31T03:04:12.513Z,70.85
2022-07-31T03:06:40.941Z,70.89
2022-07-31T03:09:09.509Z,70.97
2022-07-31T03:11:38.805Z,71.04
2022-07-31T03:14:12.596Z,71.14
2022-07-31T03:16:42.802Z,71.16
2022-07-31T03:19:12.486Z,71.16
2022-07-31T03:21:44.099Z,71.19
2022-07-31T03:24:13.484Z,71.22
2022-07-31T03:26:42.849Z,71.33
2022-07-31T03:29:42.940Z,71.34
2022-07-31T03:32:01.778Z,71.23
2022-07-31T03:34:30.587Z,71.25
2022-07-31T03:36:59.713Z,71.31
2022-07-31T03:39:29.226Z,71.30
2022-07-31T03:42:03.877Z,71.28
2022-07-31T03:44:34.338Z,71.33
2022-07-31T03:47:23.353Z,71.33
2022-07-31T03:49:53.659Z,71.37
2022-07-31T03:52:23.044Z,71.36
2022-07-31T03:54:51.689Z,71.29
2022-07-31T03:57:21.258Z,71.28
2022-07-31T03:59:57.538Z,71.31
2022-07-31T04:02:27.252Z,71.17
2022-07-31T04:05:09.627Z,71.17
2022-07-31T04:07:44.713Z,71.15
2022-07-31T04:10:13.468Z,71.23
2022-07-31T04:12:42.008Z,71.37
2022-07-31T04:15:11.442Z,71.45
2022-07-31T04:17:40.015Z,71.48
2022-07-31T04:20:11.491Z,71.54
2022-07-31T04:22:40.827Z,71.57
2022-07-31T04:25:16.713Z,71.50
2022-07-31T04:27:55.596Z,71.60
2022-07-31T04:30:24.322Z,71.70
2022-07-31T04:32:54.605Z,71.82
2022-07-31T04:35:25.199Z,71.78
2022-07-31T04:37:54.335Z,71.76
2022-07-31T04:40:25.803Z,71.80
2022-07-31T04:42:55.509Z,71.77
2022-07-31T04:45:26.850Z,71.75
2022-07-31T04:47:55.939Z,71.91
2022-07-31T04:50:24.533Z,71.81
2022-07-31T04:53:00.716Z,71.88
2022-07-31T04:55:37.461Z,71.96
2022-07-31T04:58:06.153Z,71.85
2022-07-31T05:00:34.738Z,71.98
2022-07-31T05:03:03.595Z,71.96
2022-07-31T05:05:32.722Z,72.11
2022-07-31T05:08:02.519Z,72.15
2022-07-31T05:11:00.368Z,72.18
2022-07-31T05:13:29.779Z,72.26
2022-07-31T05:19:13.862Z,72.14
2022-07-31T05:22:04.632Z,72.00
2022-07-31T05:24:45.860Z,72.02
2022-07-31T05:27:14.267Z,72.09
2022-07-31T05:29:43.933Z,72.05
2022-07-31T05:32:13.086Z,72.07
2022-07-31T05:34:41.758Z,72.04
2022-07-31T05:37:11.377Z,72.03
2022-07-31T05:39:42.080Z,71.98
2022-07-31T05:42:29.123Z,71.88
2022-07-31T05:45:16.556Z,72.03
2022-07-31T05:47:45.245Z,72.04
2022-07-31T05:50:15.193Z,72.02
2022-07-31T05:52:43.712Z,71.97
2022-07-31T05:55:41.720Z,71.91
2022-07-31T05:58:20.953Z,71.93
2022-07-31T06:00:50.126Z,71.91
2022-07-31T06:03:24.415Z,72.01
2022-07-31T06:09:05.269Z,71.90
2022-07-31T06:11:37.667Z,72.05
2022-07-31T06:14:06.156Z,72.03
2022-07-31T06:17:04.168Z,72.17
2022-07-31T06:19:33.259Z,71.98
2022-07-31T06:22:01.630Z,71.94
2022-07-31T06:24:32.029Z,72.00
2022-07-31T06:27:03.770Z,72.04
2022-07-31T06:29:41.437Z,72.01
2022-07-31T06:32:10.607Z,71.95
2022-07-31T06:34:39.266Z,71.98
2022-07-31T06:37:08.375Z,72.05
2022-07-31T06:39:55.820Z,72.11
2022-07-31T06:43:05.000Z,72.04
2022-07-31T06:45:54.093Z,72.04
2022-07-31T06:52:18.655Z,72.05
2022-07-31T06:54:47.607Z,72.14
2022-07-31T06:57:16.078Z,72.19
2022-07-31T06:59:45.124Z,72.24
2022-07-31T07:02:13.906Z,72.24
2022-07-31T07:04:56.199Z,72.29
2022-07-31T07:07:36.725Z,72.17
2022-07-31T07:10:06.879Z,72.22
2022-07-31T07:12:55.547Z,72.28
2022-07-31T07:15:24.208Z,72.16
2022-07-31T07:17:53.026Z,72.19
2022-07-31T07:20:33.784Z,72.23
2022-07-31T07:24:13.716Z,72.31
2022-07-31T07:27:49.153Z,72.32
2022-07-31T07:31:44.724Z,72.41
2022-07-31T07:35:00.012Z,72.34
2022-07-31T07:39:29.121Z,72.35
2022-07-31T07:42:02.425Z,72.45
2022-07-31T07:49:30.718Z,72.62
2022-07-31T07:57:30.228Z,72.86
2022-07-31T08:00:21.050Z,73.00
2022-07-31T08:03:54.604Z,72.96
2022-07-31T08:06:27.666Z,73.08
2022-07-31T08:08:59.053Z,73.05
2022-07-31T08:16:21.714Z,73.11
2022-07-31T08:20:06.583Z,73.11
2022-07-31T08:29:08.385Z,73.10
2022-07-31T08:32:03.409Z,73.22
2022-07-31T08:34:55.469Z,73.23
2022-07-31T08:38:03.823Z,73.21
2022-07-31T08:41:17.172Z,73.06
2022-07-31T08:44:02.436Z,73.20
2022-07-31T08:51:02.024Z,73.28
2022-07-31T08:53:51.632Z,73.38
2022-07-31T08:56:23.745Z,73.39
2022-07-31T08:58:55.132Z,73.49
2022-07-31T09:01:23.964Z,73.36
2022-07-31T09:03:54.618Z,73.27
2022-07-31T09:06:24.172Z,73.21
2022-07-31T09:08:56.859Z,73.15
2022-07-31T09:11:27.355Z,73.11
2022-07-31T09:14:34.118Z,73.19
2022-07-31T09:17:08.759Z,73.32
2022-07-31T09:20:01.836Z,73.39
2022-07-31T09:22:43.809Z,73.20
2022-07-31T09:25:51.518Z,73.23
2022-07-31T09:28:34.138Z,73.04
2022-07-31T09:31:15.342Z,72.95
2022-07-31T09:33:59.970Z,72.86
2022-07-31T09:36:43.765Z,72.90
2022-07-31T09:39:52.396Z,72.83
2022-07-31T09:42:45.967Z,72.86
2022-07-31T09:45:26.084Z,72.81
2022-07-31T09:48:12.828Z,72.83
2022-07-31T09:50:59.882Z,72.67
2022-07-31T09:53:43.508Z,72.68
2022-07-31T09:56:33.921Z,72.35
2022-07-31T09:59:03.045Z,72.46
2022-07-31T10:01:35.815Z,72.52
2022-07-31T10:04:08.439Z,72.46
2022-07-31T10:10:13.617Z,72.47
2022-07-31T10:13:00.250Z,72.35
2022-07-31T10:15:32.937Z,72.23
2022-07-31T10:18:40.402Z,72.14
2022-07-31T10:21:40.888Z,72.16
2022-07-31T10:24:12.894Z,72.22
2022-07-31T10:27:11.059Z,72.23
2022-07-31T10:29:33.407Z,72.04
2022-07-31T10:32:09.277Z,71.94
2022-07-31T10:34:45.663Z,71.92
2022-07-31T10:37:39.339Z,71.98
2022-07-31T10:40:29.004Z,71.98
2022-07-31T10:43:19.320Z,71.88
2022-07-31T10:46:03.937Z,71.61
2022-07-31T10:48:54.371Z,71.49
2022-07-31T10:51:48.924Z,71.32
2022-07-31T10:54:46.583Z,71.40
2022-07-31T10:57:35.126Z,71.43
2022-07-31T11:00:42.677Z,71.24
2022-07-31T11:03:46.026Z,71.45
2022-07-31T11:06:41.032Z,71.37
2022-07-31T11:09:51.077Z,71.35
2022-07-31T11:12:29.684Z,71.28
2022-07-31T11:15:23.231Z,71.34
2022-07-31T11:18:22.744Z,71.33
2022-07-31T11:21:37.994Z,71.46
2022-07-31T11:24:03.316Z,71.66
2022-07-31T11:26:41.648Z,71.51
2022-07-31T11:30:00.934Z,71.34
2022-07-31T11:32:15.687Z,71.35
2022-07-31T11:34:51.040Z,71.35
2022-07-31T11:37:22.654Z,71.24
2022-07-31T11:39:53.991Z,71.46
2022-07-31T11:42:27.778Z,71.32
2022-07-31T11:45:10.991Z,71.28
2022-07-31T11:48:12.324Z,71.39
2022-07-31T11:50:41.557Z,71.46
2022-07-31T11:53:10.735Z,71.39
2022-07-31T11:55:48.639Z,71.32
2022-07-31T11:58:19.894Z,71.47
2022-07-31T12:00:51.153Z,71.44
2022-07-31T12:03:21.838Z,71.35
2022-07-31T12:05:52.273Z,71.30
2022-07-31T12:08:22.108Z,71.12
2022-07-31T12:10:53.189Z,71.16
2022-07-31T12:13:23.203Z,71.18
2022-07-31T12:16:00.889Z,71.06
2022-07-31T12:18:32.630Z,71.06
2022-07-31T12:21:03.718Z,71.24
2022-07-31T12:23:43.782Z,71.21
2022-07-31T12:26:23.155Z,71.27
2022-07-31T12:29:00.283Z,71.30
2022-07-31T12:31:30.638Z,71.22
2022-07-31T12:33:59.301Z,71.24
2022-07-31T12:36:27.955Z,71.40
2022-07-31T12:39:05.335Z,71.35
2022-07-31T12:41:43.051Z,71.28
2022-07-31T12:44:14.312Z,71.22
2022-07-31T12:46:43.551Z,71.06
2022-07-31T12:49:12.348Z,71.22
2022-07-31T12:51:46.159Z,71.14
2022-07-31T12:54:18.519Z,70.99
2022-07-31T12:56:47.514Z,71.12
2022-07-31T12:59:16.563Z,71.12
2022-07-31T13:01:45.921Z,71.04
2022-07-31T13:04:18.744Z,70.93
2022-07-31T13:06:51.391Z,70.92
2022-07-31T13:09:20.978Z,70.96
2022-07-31T13:11:57.576Z,70.94
2022-07-31T13:14:26.688Z,70.77
2022-07-31T13:16:56.769Z,70.82
2022-07-31T13:19:26.726Z,70.86
2022-07-31T13:21:56.870Z,70.93
2022-07-31T13:24:28.563Z,71.11
2022-07-31T13:26:58.687Z,71.19
2022-07-31T13:29:27.484Z,71.13
2022-07-31T13:31:56.451Z,71.29
2022-07-31T13:34:25.257Z,71.33
2022-07-31T13:36:53.798Z,71.25
2022-07-31T13:39:22.707Z,71.35
2022-07-31T13:41:51.495Z,71.43
2022-07-31T13:44:20.284Z,71.56
2022-07-31T13:46:48.791Z,71.75
2022-07-31T13:49:17.395Z,71.67
2022-07-31T13:51:45.958Z,71.73
2022-07-31T13:54:15.915Z,71.75
2022-07-31T13:56:44.785Z,71.73
2022-07-31T13:59:46.001Z,71.81
2022-07-31T14:02:14.813Z,71.73
2022-07-31T14:05:10.137Z,71.81
2022-07-31T14:11:36.881Z,71.94
2022-07-31T14:14:22.879Z,72.04
2022-07-31T14:17:01.762Z,72.17
2022-07-31T14:19:30.507Z,72.21
2022-07-31T14:22:13.266Z,72.27
2022-07-31T14:24:45.642Z,72.27
2022-07-31T14:27:20.720Z,72.22
2022-07-31T14:29:50.098Z,72.26
2022-07-31T14:32:19.121Z,72.31
2022-07-31T14:34:48.121Z,72.30
2022-07-31T14:37:19.304Z,72.40
2022-07-31T14:39:58.294Z,72.50
2022-07-31T14:42:26.923Z,72.52
2022-07-31T14:44:55.949Z,72.60
2022-07-31T14:47:24.736Z,72.68
2022-07-31T14:50:20.301Z,72.76
2022-07-31T14:53:10.835Z,72.82
2022-07-31T14:55:40.719Z,72.94
2022-07-31T14:58:09.549Z,72.95
2022-07-31T15:00:38.246Z,73.00
2022-07-31T15:03:07.054Z,73.09
2022-07-31T15:06:41.880Z,73.17
2022-07-31T15:08:24.403Z,73.31
2022-07-31T15:10:53.252Z,73.27
2022-07-31T15:13:25.922Z,73.15
2022-07-31T15:15:54.702Z,73.09
2022-07-31T15:18:25.865Z,73.15
2022-07-31T15:20:55.147Z,73.31
2022-07-31T15:23:24.733Z,73.29
2022-07-31T15:25:53.317Z,73.30
2022-07-31T15:28:22.026Z,73.42
2022-07-31T15:30:53.049Z,73.47
2022-07-31T15:33:23.159Z,73.47
2022-07-31T15:35:51.605Z,73.39
2022-07-31T15:38:20.170Z,73.32
2022-07-31T15:40:49.449Z,73.41
2022-07-31T15:43:18.430Z,73.35
2022-07-31T15:45:50.614Z,73.31
2022-07-31T15:48:19.182Z,73.35
2022-07-31T15:50:47.996Z,73.23
2022-07-31T15:53:16.710Z,73.25
2022-07-31T15:55:47.104Z,73.32
2022-07-31T15:58:15.924Z,73.08
2022-07-31T16:00:44.831Z,73.09
2022-07-31T16:03:17.814Z,73.18
2022-07-31T16:05:55.922Z,73.20
2022-07-31T16:08:29.169Z,73.00
2022-07-31T16:11:03.356Z,73.02
2022-07-31T16:13:35.846Z,73.14
2022-07-31T16:16:05.815Z,73.20
2022-07-31T16:18:34.557Z,73.14
2022-07-31T16:21:03.071Z,73.20
2022-07-31T16:23:31.838Z,73.26
2022-07-31T16:26:00.489Z,73.32
2022-07-31T16:28:29.185Z,73.39
2022-07-31T16:30:57.925Z,73.33
2022-07-31T16:33:26.579Z,73.33
2022-07-31T16:35:55.286Z,73.53
2022-07-31T16:38:23.970Z,73.63
2022-07-31T16:40:53.668Z,73.62
2022-07-31T16:43:47.632Z,73.64
2022-07-31T16:46:14.293Z,73.76
2022-07-31T16:48:43.070Z,73.76
2022-07-31T16:51:11.866Z,73.67
2022-07-31T16:54:10.965Z,73.54
2022-07-31T16:56:31.426Z,73.53
2022-07-31T16:59:03.994Z,73.51
2022-07-31T17:01:56.757Z,73.42
2022-07-31T17:04:21.969Z,73.49
2022-07-31T17:06:50.904Z,73.51
2022-07-31T17:09:19.646Z,73.48
2022-07-31T17:11:50.801Z,73.53
2022-07-31T17:14:22.165Z,73.60
2022-07-31T17:16:54.757Z,73.58
2022-07-31T17:19:42.860Z,73.70
2022-07-31T17:22:17.840Z,73.51
2022-07-31T17:24:49.921Z,73.51
2022-07-31T17:27:19.792Z,73.48
2022-07-31T17:29:48.996Z,73.42
2022-07-31T17:32:18.687Z,73.51
2022-07-31T17:34:49.941Z,73.45
2022-07-31T17:37:19.111Z,73.29
2022-07-31T17:39:54.674Z,73.45
2022-07-31T17:42:27.290Z,73.45
2022-07-31T17:44:59.626Z,73.52
2022-07-31T17:47:30.770Z,73.50
2022-07-31T17:49:59.490Z,73.49
2022-07-31T17:52:28.371Z,73.35
2022-07-31T17:54:57.117Z,73.38
2022-07-31T17:57:29.155Z,73.42
2022-07-31T18:00:01.598Z,73.31
2022-07-31T18:02:33.190Z,73.36
2022-07-31T18:05:06.384Z,73.28
2022-07-31T18:07:37.213Z,73.23
2022-07-31T18:10:08.567Z,73.22
2022-07-31T18:12:40.387Z,73.06
2022-07-31T18:15:34.390Z,72.88
2022-07-31T18:18:03.922Z,72.81
2022-07-31T18:20:33.082Z,72.82
2022-07-31T18:23:02.163Z,72.92
2022-07-31T18:25:31.328Z,72.83
2022-07-31T18:28:00.285Z,72.67
2022-07-31T18:30:30.756Z,72.55
2022-07-31T18:33:03.224Z,72.45
2022-07-31T18:35:32.641Z,72.48
2022-07-31T18:38:01.258Z,72.41
2022-07-31T18:40:32.375Z,72.36
2022-07-31T18:43:01.804Z,72.46
2022-07-31T18:45:31.085Z,72.58
2022-07-31T18:47:59.816Z,72.58
2022-07-31T18:50:59.712Z,72.40
2022-07-31T18:53:17.610Z,72.42
2022-07-31T18:55:48.658Z,72.50
2022-07-31T18:58:17.266Z,72.56
2022-07-31T19:00:45.757Z,72.50
2022-07-31T19:03:14.307Z,72.60
2022-07-31T19:05:43.865Z,72.68
2022-07-31T19:08:14.972Z,72.69
2022-07-31T19:10:43.456Z,72.73
2022-07-31T19:13:18.978Z,72.78
2022-07-31T19:15:49.730Z,72.77
2022-07-31T19:18:23.442Z,72.79
2022-07-31T19:21:17.949Z,72.83
2022-07-31T19:23:46.954Z,72.95
2022-07-31T19:26:15.664Z,72.92
2022-07-31T19:28:44.810Z,72.87
2022-07-31T19:31:13.755Z,72.96
2022-07-31T19:33:42.466Z,73.07
2022-07-31T19:36:11.026Z,73.14
2022-07-31T19:38:40.658Z,73.08
2022-07-31T19:41:09.060Z,73.07
2022-07-31T19:43:37.901Z,73.32
2022-07-31T19:46:12.051Z,73.34
2022-07-31T19:48:43.511Z,73.48
2022-07-31T19:51:13.876Z,73.45
2022-07-31T19:53:44.042Z,73.46
2022-07-31T19:56:20.175Z,73.36
2022-07-31T19:58:51.480Z,73.53
2022-07-31T20:01:20.498Z,73.38
2022-07-31T20:03:49.507Z,73.44
2022-07-31T20:06:18.512Z,73.52
2022-07-31T20:08:47.039Z,73.51
2022-07-31T20:11:16.636Z,73.47
2022-07-31T20:13:46.424Z,73.54
2022-07-31T20:16:15.138Z,73.57
2022-07-31T20:18:43.646Z,73.51
2022-07-31T20:21:12.539Z,73.45
2022-07-31T20:23:41.031Z,73.63
2022-07-31T20:26:11.362Z,73.70
2022-07-31T20:28:40.840Z,73.69
2022-07-31T20:31:18.491Z,73.63
2022-07-31T20:33:57.594Z,73.81
2022-07-31T20:36:27.469Z,73.82
2022-07-31T20:38:58.201Z,73.72
2022-07-31T20:41:27.283Z,73.79
2022-07-31T20:43:56.366Z,73.85
2022-07-31T20:46:25.049Z,73.85
2022-07-31T20:48:55.630Z,73.93
2022-07-31T20:51:25.200Z,73.82
2022-07-31T20:53:56.810Z,73.97
2022-07-31T20:56:25.467Z,73.93
2022-07-31T20:58:54.463Z,74.04
2022-07-31T21:01:24.468Z,74.00
2022-07-31T21:03:54.389Z,73.98
2022-07-31T21:06:23.024Z,74.08
2022-07-31T21:08:51.576Z,73.89
2022-07-31T21:11:20.120Z,74.16
2022-07-31T21:13:48.673Z,74.14
2022-07-31T21:16:19.162Z,74.17
2022-07-31T21:18:50.118Z,74.19
2022-07-31T21:21:18.815Z,74.18
2022-07-31T21:23:47.310Z,74.31
2022-07-31T21:26:17.004Z,74.38
2022-07-31T21:28:47.724Z,74.17
2022-07-31T21:31:18.184Z,73.96
2022-07-31T21:33:48.790Z,74.11
2022-07-31T21:36:19.822Z,74.05
2022-07-31T21:38:49.373Z,74.09
2022-07-31T21:41:19.162Z,73.97
2022-07-31T21:43:59.124Z,73.96
2022-07-31T21:46:29.529Z,73.90
2022-07-31T21:48:58.936Z,74.01
2022-07-31T21:51:28.903Z,73.88
2022-07-31T21:53:57.449Z,73.91
2022-07-31T21:56:28.811Z,73.91
2022-07-31T21:58:57.629Z,73.75
2022-07-31T22:01:26.331Z,73.81
2022-07-31T22:03:54.877Z,73.86
2022-07-31T22:06:42.109Z,74.10
2022-07-31T22:09:10.757Z,74.07
2022-07-31T22:11:39.285Z,74.14
2022-07-31T22:14:08.205Z,74.00
2022-07-31T22:16:38.544Z,73.98
2022-07-31T22:19:08.284Z,74.01
2022-07-31T22:21:37.485Z,73.89
2022-07-31T22:24:08.811Z,73.92
2022-07-31T22:26:38.427Z,74.14
2022-07-31T22:29:07.889Z,74.03
2022-07-31T22:31:38.541Z,73.90
2022-07-31T22:34:37.268Z,73.96
2022-07-31T22:37:07.622Z,74.06
2022-07-31T22:39:37.496Z,74.02
2022-07-31T22:42:07.425Z,73.94
2022-07-31T22:44:38.017Z,74.11
2022-07-31T22:47:08.452Z,74.26
2022-07-31T22:49:37.076Z,74.26
2022-07-31T22:52:07.131Z,74.08
2022-07-31T22:54:35.726Z,74.02
2022-07-31T22:57:04.621Z,74.09
2022-07-31T22:59:33.720Z,74.15
2022-07-31T23:02:04.549Z,74.08
2022-07-31T23:04:33.359Z,74.01
2022-07-31T23:07:01.897Z,74.01
2022-07-31T23:09:30.869Z,73.91
2022-07-31T23:11:59.754Z,73.85
2022-07-31T23:14:29.453Z,73.82
2022-07-31T23:16:58.847Z,73.81
2022-07-31T23:19:27.259Z,73.84
2022-07-31T23:21:55.738Z,73.82
2022-07-31T23:24:24.240Z,73.84
2022-07-31T23:26:53.080Z,73.88
2022-07-31T23:29:21.480Z,73.87
2022-07-31T23:31:49.940Z,73.80
2022-07-31T23:34:18.408Z,73.79
2022-07-31T23:36:46.902Z,73.99
2022-07-31T23:39:17.878Z,73.85
2022-07-31T23:42:04.821Z,73.91
2022-07-31T23:44:33.548Z,73.91
2022-07-31T23:47:07.756Z,74.04
2022-07-31T23:49:37.333Z,73.97
2022-07-31T23:52:06.495Z,74.02
2022-07-31T23:54:35.214Z,74.12
2022-07-31T23:57:03.714Z,74.10
2022-07-31T23:59:32.485Z,74.06
